Time;durP1;ratioP1;P1;durP2;ratioP2;P2;SDS_P1;SDS_P2;PMS_P1;PMS_P2;Temp;Humidity;BMP_temperature;BMP_pressure;BME280_temperature;BME280_humidity;BME280_pressure;Samples;Min_cycle;Max_cycle;Signal;HPM_P1;HPM_P2
2021/12/09 00:00:26;;;;;;;18.10;3.67;;;11.30;99.90;;;;;;5016785;28;20617;-65
2021/12/09 00:02:53;;;;;;;15.00;3.90;;;11.30;99.90;;;;;;4993827;28;20317;-63
2021/12/09 00:05:20;;;;;;;16.53;3.77;;;11.20;99.90;;;;;;5012800;28;20304;-65
2021/12/09 00:07:50;;;;;;;15.23;3.77;;;11.20;99.90;;;;;;4998313;28;20285;-65
2021/12/09 00:10:17;;;;;;;17.33;3.30;;;11.20;99.90;;;;;;5000773;28;20211;-64
2021/12/09 00:12:44;;;;;;;12.93;3.40;;;11.30;99.90;;;;;;4996240;28;20319;-64
2021/12/09 00:15:11;;;;;;;16.40;3.53;;;11.20;99.90;;;;;;4999344;28;20188;-65
2021/12/09 00:17:37;;;;;;;13.60;3.50;;;11.20;99.90;;;;;;5001855;28;20304;-65
2021/12/09 00:20:06;;;;;;;13.00;3.37;;;11.30;99.90;;;;;;5001031;28;20220;-64
2021/12/09 00:22:32;;;;;;;11.03;3.37;;;11.30;99.90;;;;;;5000085;28;20673;-64
2021/12/09 00:24:58;;;;;;;10.17;3.10;;;11.30;99.90;;;;;;5001478;28;20238;-65
2021/12/09 00:27:25;;;;;;;17.87;4.00;;;11.30;99.90;;;;;;5001452;28;20791;-65
2021/12/09 00:29:51;;;;;;;16.87;3.40;;;11.20;99.90;;;;;;5000275;28;20288;-64
2021/12/09 00:32:18;;;;;;;14.80;3.83;;;11.20;99.90;;;;;;4984369;28;20225;-63
2021/12/09 00:34:47;;;;;;;14.57;3.23;;;11.20;99.90;;;;;;5000793;28;20207;-65
2021/12/09 00:37:23;;;;;;;12.77;3.27;;;11.10;99.90;;;;;;5000517;28;20282;-65
2021/12/09 00:39:51;;;;;;;11.03;3.33;;;11.10;99.90;;;;;;4999096;28;21851;-64
2021/12/09 00:42:22;;;;;;;19.23;4.17;;;11.00;99.90;;;;;;5003386;28;20200;-64
2021/12/09 00:44:49;;;;;;;14.23;3.30;;;11.00;99.90;;;;;;5002034;28;20185;-65
2021/12/09 00:47:16;;;;;;;16.47;3.90;;;11.00;99.90;;;;;;5004771;28;20195;-65
2021/12/09 00:49:42;;;;;;;27.77;3.87;;;11.00;99.90;;;;;;5005122;28;20203;-66
2021/12/09 00:52:09;;;;;;;13.27;3.60;;;10.90;99.90;;;;;;5007689;28;20207;-65
2021/12/09 00:54:38;;;;;;;8.03;2.77;;;10.90;99.90;;;;;;5039197;28;20196;-64
2021/12/09 00:57:05;;;;;;;16.93;3.43;;;10.80;99.90;;;;;;5003326;28;20197;-65
2021/12/09 00:59:31;;;;;;;16.83;3.57;;;10.90;99.90;;;;;;5003838;28;20263;-64
2021/12/09 01:01:58;;;;;;;14.13;3.47;;;10.90;99.90;;;;;;5000458;28;20587;-64
2021/12/09 01:04:25;;;;;;;7.47;2.83;;;10.80;99.90;;;;;;5003844;28;20810;-64
2021/12/09 01:06:51;;;;;;;9.67;2.87;;;10.80;99.90;;;;;;5001399;28;20711;-65
2021/12/09 01:09:18;;;;;;;13.63;3.13;;;10.80;99.90;;;;;;5007146;28;20287;-66
2021/12/09 01:11:45;;;;;;;17.87;3.27;;;10.70;99.90;;;;;;5002315;28;20197;-64
2021/12/09 01:14:12;;;;;;;15.33;3.10;;;10.70;99.90;;;;;;4994565;28;20196;-65
2021/12/09 01:16:38;;;;;;;18.50;3.60;;;10.70;99.90;;;;;;5003524;28;20606;-64
2021/12/09 01:19:05;;;;;;;14.35;3.40;;;10.70;99.90;;;;;;5000145;28;20435;-64
2021/12/09 01:21:32;;;;;;;11.20;2.97;;;10.70;99.90;;;;;;5002630;28;20223;-64
2021/12/09 01:23:58;;;;;;;13.97;3.50;;;10.70;99.90;;;;;;5001251;28;20192;-63
2021/12/09 01:26:26;;;;;;;9.17;2.50;;;10.70;99.90;;;;;;4986747;28;20638;-63
2021/12/09 01:28:57;;;;;;;14.13;2.90;;;10.70;99.90;;;;;;5003835;28;20181;-64
2021/12/09 01:31:32;;;;;;;10.50;2.90;;;10.70;99.90;;;;;;5005078;28;20193;-64
2021/12/09 01:34:02;;;;;;;10.77;3.20;;;10.60;99.90;;;;;;5003031;28;20207;-63
2021/12/09 01:36:36;;;;;;;7.87;2.90;;;10.70;99.90;;;;;;5004462;28;20543;-62
2021/12/09 01:39:06;;;;;;;15.53;3.07;;;10.80;99.90;;;;;;5029228;28;20488;-64
2021/12/09 01:41:33;;;;;;;12.57;3.10;;;10.90;99.90;;;;;;5005135;28;20221;-64
2021/12/09 01:43:59;;;;;;;14.67;3.03;;;10.90;99.90;;;;;;5003829;28;20213;-63
2021/12/09 01:46:25;;;;;;;13.40;3.00;;;10.90;99.90;;;;;;5004894;28;20193;-63
2021/12/09 01:48:53;;;;;;;13.10;3.20;;;10.90;99.90;;;;;;5005066;28;20534;-64
2021/12/09 01:51:20;;;;;;;14.27;3.43;;;11.00;99.90;;;;;;5003109;28;20211;-64
2021/12/09 01:53:47;;;;;;;18.97;3.70;;;11.00;99.90;;;;;;5004563;28;20562;-64
2021/12/09 01:56:23;;;;;;;20.60;6.60;;;11.00;99.90;;;;;;5005469;28;20575;-63
2021/12/09 01:58:57;;;;;;;13.10;3.27;;;11.00;99.90;;;;;;5003534;28;20274;-63
2021/12/09 02:01:24;;;;;;;17.33;4.33;;;11.00;99.90;;;;;;5017355;28;20211;-63
2021/12/09 02:03:51;;;;;;;13.00;3.27;;;11.00;99.90;;;;;;5005278;28;20221;-63
2021/12/09 02:06:19;;;;;;;14.17;3.07;;;11.00;99.90;;;;;;5005132;28;20192;-64
2021/12/09 02:08:46;;;;;;;9.87;2.90;;;11.00;99.90;;;;;;5003701;28;20200;-64
2021/12/09 02:11:13;;;;;;;14.40;3.43;;;11.00;99.90;;;;;;5017700;28;20225;-65
2021/12/09 02:13:39;;;;;;;11.00;3.50;;;10.90;99.90;;;;;;5002457;28;20193;-63
2021/12/09 02:16:05;;;;;;;11.60;4.40;;;10.90;99.90;;;;;;5003975;28;20200;-64
2021/12/09 02:18:32;;;;;;;15.63;3.33;;;10.80;99.90;;;;;;5004381;28;20197;-63
2021/12/09 02:21:20;;;;;;;19.20;3.23;;;10.80;99.90;;;;;;5005505;28;20244;-63
2021/12/09 02:23:51;;;;;;;10.17;3.10;;;10.80;99.90;;;;;;5005159;28;20263;-64
2021/12/09 02:26:23;;;;;;;12.97;3.40;;;10.80;99.90;;;;;;5004091;28;20312;-64
2021/12/09 02:28:50;;;;;;;21.77;3.83;;;10.80;99.90;;;;;;5004732;28;20189;-64
2021/12/09 02:31:18;;;;;;;10.60;3.03;;;10.80;99.90;;;;;;5002532;28;20196;-65
2021/12/09 02:33:44;;;;;;;11.43;2.53;;;10.80;99.90;;;;;;5006723;28;20691;-63
2021/12/09 02:36:10;;;;;;;13.33;2.60;;;10.70;99.90;;;;;;5004652;28;20299;-65
2021/12/09 02:38:43;;;;;;;14.90;3.13;;;10.70;99.90;;;;;;5007136;28;20196;-64
2021/12/09 02:41:23;;;;;;;12.37;2.70;;;10.70;99.90;;;;;;5006235;28;20229;-63
2021/12/09 02:43:57;;;;;;;10.07;2.13;;;10.60;99.90;;;;;;5021498;28;20280;-63
2021/12/09 02:46:26;;;;;;;10.50;2.33;;;10.60;99.90;;;;;;5002000;28;20275;-63
2021/12/09 02:48:53;;;;;;;6.17;2.20;;;10.60;99.90;;;;;;5004760;28;20979;-64
2021/12/09 02:51:21;;;;;;;8.10;2.50;;;10.50;99.90;;;;;;5005883;28;20189;-64
2021/12/09 02:53:47;;;;;;;13.97;2.83;;;10.40;99.90;;;;;;5006865;28;20520;-64
2021/12/09 02:56:14;;;;;;;13.00;2.93;;;10.40;99.90;;;;;;5009768;28;20200;-63
2021/12/09 02:58:41;;;;;;;7.17;2.47;;;10.50;99.90;;;;;;5005490;28;20192;-63
2021/12/09 03:01:20;;;;;;;8.07;2.20;;;10.40;99.90;;;;;;5005916;28;20217;-63
2021/12/09 03:03:51;;;;;;;11.13;2.57;;;10.30;99.90;;;;;;5006821;28;20633;-63
2021/12/09 03:06:20;;;;;;;14.27;2.17;;;10.30;99.90;;;;;;5020255;28;20208;-63
2021/12/09 03:08:47;;;;;;;8.80;2.30;;;10.20;99.90;;;;;;5007287;28;20276;-63
2021/12/09 03:11:21;;;;;;;14.63;2.30;;;10.20;99.90;;;;;;5004853;28;20193;-65
2021/12/09 03:13:51;;;;;;;8.43;2.83;;;10.20;99.90;;;;;;5005852;28;20265;-64
2021/12/09 03:16:22;;;;;;;11.63;2.60;;;10.20;99.90;;;;;;5002550;28;20270;-62
2021/12/09 03:18:53;;;;;;;13.33;2.37;;;10.20;99.90;;;;;;5038450;28;20283;-64
2021/12/09 03:21:26;;;;;;;8.63;2.40;;;10.20;99.90;;;;;;5004902;28;20197;-63
2021/12/09 03:23:54;;;;;;;5.77;2.20;;;10.20;99.90;;;;;;5005142;28;20308;-62
2021/12/09 03:26:29;;;;;;;11.63;2.70;;;10.20;99.90;;;;;;5004458;28;20219;-64
2021/12/09 03:29:04;;;;;;;7.33;2.10;;;10.20;99.90;;;;;;5002591;28;20222;-62
2021/12/09 03:31:31;;;;;;;9.27;1.90;;;10.20;99.90;;;;;;5003500;28;20232;-64
2021/12/09 03:33:58;;;;;;;6.67;1.67;;;10.20;99.90;;;;;;5010204;28;20183;-64
2021/12/09 03:36:28;;;;;;;6.63;1.80;;;10.20;99.90;;;;;;5004862;28;20248;-64
2021/12/09 03:39:03;;;;;;;15.27;2.73;;;10.20;99.90;;;;;;5005418;28;20189;-65
2021/12/09 03:41:29;;;;;;;5.73;1.77;;;10.20;99.90;;;;;;5001809;28;20236;-63
2021/12/09 03:43:56;;;;;;;14.57;1.90;;;10.10;99.90;;;;;;5004193;28;20263;-64
2021/12/09 03:46:24;;;;;;;12.00;2.40;;;10.00;99.90;;;;;;5006053;28;20238;-64
2021/12/09 03:48:51;;;;;;;6.17;1.63;;;10.10;99.90;;;;;;4998455;28;20219;-64
2021/12/09 03:51:17;;;;;;;7.97;1.77;;;10.10;99.90;;;;;;4997030;28;20515;-64
2021/12/09 03:53:43;;;;;;;4.67;2.10;;;10.10;99.90;;;;;;5004015;28;20215;-64
2021/12/09 03:56:10;;;;;;;6.10;1.80;;;10.00;99.90;;;;;;5005404;28;20594;-64
2021/12/09 03:58:36;;;;;;;8.87;2.00;;;10.10;99.90;;;;;;5005592;28;20189;-63
2021/12/09 04:01:03;;;;;;;6.03;1.73;;;10.10;99.90;;;;;;5005473;28;20244;-64
2021/12/09 04:03:30;;;;;;;7.67;2.33;;;10.10;99.90;;;;;;5006068;28;20267;-63
2021/12/09 04:05:57;;;;;;;6.00;2.03;;;10.10;99.90;;;;;;5005304;28;20931;-65
2021/12/09 04:08:23;;;;;;;11.50;1.80;;;10.10;99.90;;;;;;5003580;28;20742;-63
2021/12/09 04:10:50;;;;;;;5.73;1.70;;;10.10;99.90;;;;;;5003724;28;20220;-63
2021/12/09 04:13:18;;;;;;;5.57;1.87;;;10.10;99.90;;;;;;5004092;28;20830;-63
2021/12/09 04:15:45;;;;;;;7.10;2.10;;;10.10;99.90;;;;;;5004067;28;20275;-63
2021/12/09 04:18:11;;;;;;;7.77;2.00;;;10.10;99.90;;;;;;5003563;28;20195;-63
2021/12/09 04:20:39;;;;;;;8.00;1.80;;;10.10;99.90;;;;;;5003781;28;20209;-62
2021/12/09 04:23:07;;;;;;;5.77;1.97;;;10.10;99.90;;;;;;5005764;28;21172;-64
2021/12/09 04:25:35;;;;;;;8.30;1.90;;;10.10;99.90;;;;;;5005289;28;20197;-63
2021/12/09 04:28:01;;;;;;;7.87;2.10;;;10.10;99.90;;;;;;4993475;28;21131;-64
2021/12/09 04:30:29;;;;;;;7.97;2.33;;;10.20;99.90;;;;;;5003325;28;20204;-63
2021/12/09 04:32:56;;;;;;;6.73;1.90;;;10.20;99.90;;;;;;5005444;28;20215;-63
2021/12/09 04:35:22;;;;;;;14.67;2.13;;;10.10;99.90;;;;;;5005377;28;20193;-63
2021/12/09 04:37:49;;;;;;;9.00;2.10;;;10.10;99.90;;;;;;5020907;28;20193;-65
2021/12/09 04:40:17;;;;;;;9.23;2.10;;;10.10;99.90;;;;;;5020760;28;20277;-63
2021/12/09 04:42:44;;;;;;;9.67;2.03;;;10.20;99.90;;;;;;5008922;28;20188;-63
2021/12/09 04:45:14;;;;;;;8.67;1.90;;;10.20;99.90;;;;;;5007582;28;20203;-64
2021/12/09 04:47:41;;;;;;;8.20;2.10;;;10.20;99.90;;;;;;5027968;28;20189;-65
2021/12/09 04:50:10;;;;;;;10.20;2.30;;;10.20;99.90;;;;;;5007623;28;20185;-65
2021/12/09 04:52:37;;;;;;;6.60;1.63;;;10.20;99.90;;;;;;5007561;28;20203;-62
2021/12/09 04:55:07;;;;;;;12.57;2.43;;;10.20;99.90;;;;;;5010271;28;20193;-64
2021/12/09 04:57:34;;;;;;;6.07;2.20;;;10.20;99.90;;;;;;5009641;28;20192;-63
2021/12/09 05:00:02;;;;;;;7.77;1.93;;;10.20;99.90;;;;;;5008898;28;20208;-63
2021/12/09 05:02:40;;;;;;;9.00;2.10;;;10.30;99.90;;;;;;5008590;28;20653;-64
2021/12/09 05:05:07;;;;;;;8.83;2.20;;;10.40;99.90;;;;;;5009558;28;20184;-64
2021/12/09 05:07:33;;;;;;;10.17;2.53;;;10.50;99.90;;;;;;5006820;28;20223;-64
2021/12/09 05:09:59;;;;;;;12.63;2.10;;;10.50;99.90;;;;;;5007275;28;20196;-63
2021/12/09 05:12:28;;;;;;;12.73;2.67;;;10.50;99.90;;;;;;4990719;28;20207;-64
2021/12/09 05:14:54;;;;;;;6.33;1.90;;;10.60;99.90;;;;;;4996583;28;20284;-63
2021/12/09 05:17:20;;;;;;;8.37;1.93;;;10.60;99.90;;;;;;5008376;28;20239;-64
2021/12/09 05:19:47;;;;;;;7.90;2.40;;;10.60;99.90;;;;;;4996454;28;20224;-63
2021/12/09 05:22:13;;;;;;;10.20;2.20;;;10.60;99.90;;;;;;5005947;28;20229;-63
2021/12/09 05:24:40;;;;;;;9.97;2.00;;;10.60;99.90;;;;;;5006331;28;20280;-62
2021/12/09 05:27:09;;;;;;;8.47;1.80;;;10.50;99.90;;;;;;5008669;28;20288;-65
2021/12/09 05:29:40;;;;;;;10.43;2.40;;;10.50;99.90;;;;;;5023102;28;20180;-62
2021/12/09 05:32:13;;;;;;;9.47;2.17;;;10.50;99.90;;;;;;5008407;28;20223;-64
2021/12/09 05:34:49;;;;;;;7.63;1.90;;;10.50;99.90;;;;;;5008110;28;20188;-63
2021/12/09 05:37:22;;;;;;;5.93;2.00;;;10.50;99.90;;;;;;4999261;28;20291;-64
2021/12/09 05:39:51;;;;;;;6.40;2.00;;;10.50;99.90;;;;;;5007946;28;20212;-63
2021/12/09 05:42:21;;;;;;;10.87;2.30;;;10.50;99.90;;;;;;5006098;28;20236;-64
2021/12/09 05:44:49;;;;;;;8.30;2.03;;;10.50;99.90;;;;;;5008004;28;20196;-63
2021/12/09 05:47:16;;;;;;;13.90;2.40;;;10.50;99.90;;;;;;5005981;28;20940;-63
2021/12/09 05:49:47;;;;;;;6.30;2.23;;;10.50;99.90;;;;;;5005735;28;20227;-63
2021/12/09 05:52:16;;;;;;;3.63;1.77;;;10.50;99.90;;;;;;5006213;28;20177;-64
2021/12/09 05:54:43;;;;;;;9.03;1.53;;;10.40;99.90;;;;;;5007149;28;20283;-63
2021/12/09 05:57:10;;;;;;;6.73;2.07;;;10.50;99.90;;;;;;5007930;28;20641;-62
2021/12/09 05:59:40;;;;;;;8.50;2.13;;;10.50;99.90;;;;;;5005949;28;20224;-64
2021/12/09 06:02:16;;;;;;;6.93;1.97;;;10.50;99.90;;;;;;5001917;28;20320;-62
2021/12/09 06:04:44;;;;;;;6.07;2.37;;;10.50;99.90;;;;;;5005926;28;20195;-62
2021/12/09 06:07:11;;;;;;;10.90;2.37;;;10.50;99.90;;;;;;5006749;28;20220;-63
2021/12/09 06:09:38;;;;;;;12.40;2.00;;;10.60;99.90;;;;;;5007224;28;20192;-63
2021/12/09 06:12:06;;;;;;;6.63;1.83;;;10.60;99.90;;;;;;5024830;28;20867;-64
2021/12/09 06:14:32;;;;;;;16.23;2.90;;;10.70;99.90;;;;;;5007565;28;20185;-63
2021/12/09 06:16:59;;;;;;;9.90;2.90;;;10.70;99.90;;;;;;5004389;28;20236;-62
2021/12/09 06:19:25;;;;;;;8.17;2.10;;;10.70;99.90;;;;;;5006557;28;20188;-63
2021/12/09 06:21:52;;;;;;;9.47;2.57;;;10.80;99.90;;;;;;5038718;28;20534;-64
2021/12/09 06:24:18;;;;;;;7.37;2.37;;;10.90;99.90;;;;;;5021886;28;20181;-62
2021/12/09 06:26:45;;;;;;;7.47;2.33;;;10.90;99.90;;;;;;5006806;28;20343;-63
2021/12/09 06:29:12;;;;;;;8.23;2.27;;;11.00;99.90;;;;;;5006326;28;20538;-63
2021/12/09 06:31:38;;;;;;;7.33;2.30;;;11.00;99.90;;;;;;5005827;28;20243;-63
2021/12/09 06:34:04;;;;;;;6.30;2.30;;;11.00;99.90;;;;;;5006081;28;20573;-64
2021/12/09 06:36:31;;;;;;;10.40;2.50;;;11.10;99.90;;;;;;5005215;28;20204;-62
2021/12/09 06:38:57;;;;;;;11.20;2.70;;;11.20;99.90;;;;;;5010790;28;20777;-63
2021/12/09 06:41:24;;;;;;;5.10;2.40;;;11.20;99.90;;;;;;4987193;28;20237;-63
2021/12/09 06:43:50;;;;;;;4.17;1.97;;;11.30;99.90;;;;;;5007737;28;20193;-63
2021/12/09 06:46:16;;;;;;;9.33;2.43;;;11.30;99.90;;;;;;5005203;28;20181;-64
2021/12/09 06:48:43;;;;;;;4.53;2.00;;;11.40;99.90;;;;;;5011056;28;20276;-62
2021/12/09 06:51:09;;;;;;;4.30;2.00;;;11.40;99.90;;;;;;5005244;28;20196;-62
2021/12/09 06:53:37;;;;;;;8.67;2.60;;;11.50;99.90;;;;;;5005767;28;20255;-64
2021/12/09 06:56:05;;;;;;;7.07;2.37;;;11.50;99.90;;;;;;5006230;28;20212;-65
2021/12/09 06:58:33;;;;;;;6.23;1.93;;;11.60;99.90;;;;;;5006384;28;20288;-63
2021/12/09 07:01:00;;;;;;;8.03;2.00;;;11.60;99.90;;;;;;5004549;28;20209;-64
2021/12/09 07:03:27;;;;;;;8.53;2.20;;;11.60;99.90;;;;;;5005356;28;20515;-63
2021/12/09 07:05:54;;;;;;;6.80;2.23;;;11.70;99.90;;;;;;5005805;28;20815;-62
2021/12/09 07:08:22;;;;;;;4.60;1.97;;;11.70;99.90;;;;;;5006184;28;20213;-62
2021/12/09 07:10:51;;;;;;;6.10;2.07;;;11.80;99.90;;;;;;5007052;28;20184;-63
2021/12/09 07:13:17;;;;;;;4.77;1.97;;;11.70;99.90;;;;;;5002830;28;20189;-65
2021/12/09 07:15:43;;;;;;;8.17;1.87;;;11.70;99.90;;;;;;5004247;28;20189;-65
2021/12/09 07:18:10;;;;;;;4.70;1.83;;;11.70;99.90;;;;;;4999186;28;20846;-66
2021/12/09 07:20:37;;;;;;;12.97;2.27;;;11.80;99.90;;;;;;5005348;28;20296;-63
2021/12/09 07:23:03;;;;;;;11.93;2.23;;;11.80;99.90;;;;;;5003595;28;20511;-63
2021/12/09 07:25:30;;;;;;;9.00;2.23;;;11.90;99.90;;;;;;5004619;28;20356;-64
2021/12/09 07:27:58;;;;;;;10.80;2.20;;;11.90;99.90;;;;;;5005081;28;20204;-64
2021/12/09 07:30:27;;;;;;;9.30;2.13;;;11.90;99.90;;;;;;5003068;28;20204;-64
2021/12/09 07:32:55;;;;;;;7.00;1.70;;;11.90;99.90;;;;;;5004479;28;20255;-65
2021/12/09 07:35:23;;;;;;;10.23;2.00;;;12.00;99.90;;;;;;5007694;28;20226;-65
2021/12/09 07:37:50;;;;;;;7.90;2.17;;;11.90;99.90;;;;;;5003868;28;20236;-64
2021/12/09 07:40:19;;;;;;;5.90;1.80;;;11.90;99.90;;;;;;5037230;28;20757;-62
2021/12/09 07:42:45;;;;;;;6.30;2.20;;;11.90;99.90;;;;;;5008590;28;20292;-65
2021/12/09 07:45:13;;;;;;;7.20;2.27;;;11.90;99.90;;;;;;5004376;28;20192;-64
2021/12/09 07:47:40;;;;;;;9.37;2.37;;;11.90;99.90;;;;;;5005947;28;20193;-64
2021/12/09 07:50:10;;;;;;;4.87;1.83;;;11.90;99.90;;;;;;5003913;28;20197;-64
2021/12/09 07:52:37;;;;;;;9.60;3.23;;;11.90;99.90;;;;;;5005069;28;20990;-64
2021/12/09 07:55:04;;;;;;;10.57;2.00;;;12.00;99.90;;;;;;5008755;28;20223;-64
2021/12/09 07:57:33;;;;;;;9.97;1.90;;;12.00;99.90;;;;;;5018700;28;20197;-64
2021/12/09 08:00:00;;;;;;;11.73;1.67;;;12.20;99.90;;;;;;5011425;28;20208;-64
2021/12/09 08:02:26;;;;;;;4.20;1.70;;;12.30;99.90;;;;;;5005324;28;22626;-63
2021/12/09 08:04:53;;;;;;;5.53;1.60;;;12.40;99.90;;;;;;5006231;28;20672;-64
2021/12/09 08:07:19;;;;;;;5.73;1.63;;;12.40;99.90;;;;;;5004611;28;20271;-64
2021/12/09 08:09:45;;;;;;;5.57;1.70;;;12.40;99.90;;;;;;5013406;28;20825;-64
2021/12/09 08:12:11;;;;;;;4.13;1.80;;;12.50;99.90;;;;;;5004820;28;20181;-64
2021/12/09 08:14:38;;;;;;;5.83;1.40;;;12.60;99.90;;;;;;5043737;28;20211;-64
2021/12/09 08:17:12;;;;;;;8.13;1.50;;;12.70;99.90;;;;;;5026858;28;20287;-63
2021/12/09 08:19:39;;;;;;;8.00;1.53;;;12.70;99.90;;;;;;5015835;28;20201;-64
2021/12/09 08:22:06;;;;;;;4.00;1.27;;;12.70;99.90;;;;;;5010384;28;20216;-64
2021/12/09 08:24:32;;;;;;;5.00;1.37;;;12.80;99.90;;;;;;4991140;28;20192;-63
2021/12/09 08:26:59;;;;;;;4.27;1.60;;;12.90;99.90;;;;;;5009454;28;20197;-64
2021/12/09 08:29:25;;;;;;;9.30;1.83;;;12.80;99.90;;;;;;5008271;28;20220;-63
2021/12/09 08:31:51;;;;;;;5.10;1.23;;;12.80;99.90;;;;;;5008573;28;20691;-64
2021/12/09 08:34:18;;;;;;;4.33;1.30;;;12.90;99.90;;;;;;5008144;28;20595;-64
2021/12/09 08:36:44;;;;;;;5.13;1.37;;;12.90;99.90;;;;;;5010380;28;20208;-64
2021/12/09 08:39:10;;;;;;;5.47;1.40;;;13.00;99.90;;;;;;5013134;28;20274;-63
2021/12/09 08:41:38;;;;;;;4.00;1.27;;;13.00;99.90;;;;;;5009284;28;20274;-63
2021/12/09 08:44:06;;;;;;;6.17;1.40;;;13.00;99.90;;;;;;5007649;28;20189;-64
2021/12/09 08:46:33;;;;;;;6.47;1.50;;;13.10;99.90;;;;;;4998876;28;20692;-63
2021/12/09 08:49:00;;;;;;;6.77;1.43;;;13.20;99.90;;;;;;5040973;28;20630;-62
2021/12/09 08:51:26;;;;;;;3.77;1.43;;;13.30;99.90;;;;;;5006993;28;20684;-64
2021/12/09 08:53:53;;;;;;;5.37;1.70;;;13.40;99.90;;;;;;5009349;28;20200;-64
2021/12/09 08:56:19;;;;;;;5.83;1.20;;;13.40;99.90;;;;;;5009293;28;20196;-63
2021/12/09 08:58:46;;;;;;;5.43;1.23;;;13.30;99.90;;;;;;5006297;28;20196;-63
2021/12/09 09:01:15;;;;;;;10.73;1.60;;;13.30;99.90;;;;;;5021809;28;20232;-63
2021/12/09 09:03:41;;;;;;;6.30;1.20;;;13.30;99.90;;;;;;5009081;28;20713;-63
2021/12/09 09:06:08;;;;;;;3.83;1.20;;;13.40;99.90;;;;;;5012697;28;20207;-66
2021/12/09 09:08:34;;;;;;;8.47;1.57;;;13.50;99.90;;;;;;5011416;28;20193;-64
2021/12/09 09:11:01;;;;;;;4.97;1.20;;;13.60;99.90;;;;;;5004968;28;20197;-65
2021/12/09 09:13:27;;;;;;;3.17;1.20;;;13.60;99.90;;;;;;5003108;28;20231;-65
2021/12/09 09:15:54;;;;;;;4.90;1.37;;;13.70;99.90;;;;;;5007848;28;20276;-65
2021/12/09 09:18:24;;;;;;;12.73;3.33;;;13.80;99.90;;;;;;5007264;28;20218;-63
2021/12/09 09:20:50;;;;;;;11.67;1.43;;;13.80;99.90;;;;;;5006782;28;20213;-62
2021/12/09 09:23:21;;;;;;;8.80;1.87;;;13.90;99.90;;;;;;5021921;28;20185;-64
2021/12/09 09:25:48;;;;;;;7.37;1.70;;;14.00;99.90;;;;;;5008062;28;20200;-62
2021/12/09 09:28:15;;;;;;;5.70;1.67;;;14.00;99.90;;;;;;5005776;28;20291;-62
2021/12/09 09:30:49;;;;;;;7.67;1.77;;;14.10;99.90;;;;;;5005579;28;20200;-64
2021/12/09 09:33:16;;;;;;;7.63;1.47;;;14.10;99.90;;;;;;5005197;28;20216;-66
2021/12/09 09:35:45;;;;;;;9.30;2.90;;;14.00;99.90;;;;;;5008518;28;20263;-63
2021/12/09 09:38:12;;;;;;;3.80;1.37;;;13.90;99.90;;;;;;5012326;28;20895;-62
2021/12/09 09:40:59;;;;;;;4.63;1.43;;;13.80;99.90;;;;;;5007709;28;20212;-63
2021/12/09 09:45:57;;;;;;;10.00;1.43;;;13.80;99.90;;;;;;5007883;28;20187;-62
2021/12/09 09:48:24;;;;;;;3.43;1.00;;;14.00;99.90;;;;;;5008065;28;20243;-66
2021/12/09 09:50:51;;;;;;;4.77;1.20;;;14.10;99.90;;;;;;5007727;28;20263;-65
2021/12/09 09:53:19;;;;;;;13.13;2.10;;;14.10;99.90;;;;;;5008312;28;20200;-64
2021/12/09 09:55:47;;;;;;;5.80;1.73;;;14.20;99.90;;;;;;5009035;28;20211;-64
2021/12/09 09:58:15;;;;;;;9.53;1.63;;;14.30;99.90;;;;;;5006634;28;20582;-65
2021/12/09 10:00:42;;;;;;;8.07;1.40;;;14.50;99.90;;;;;;5005403;28;20396;-64
2021/12/09 10:03:16;;;;;;;12.10;1.70;;;14.50;99.90;;;;;;5006821;28;20212;-64
2021/12/09 10:05:50;;;;;;;10.60;1.73;;;14.40;99.90;;;;;;5005958;28;20654;-65
2021/12/09 10:08:18;;;;;;;4.53;1.50;;;14.30;99.90;;;;;;5006339;28;20208;-65
2021/12/09 10:10:46;;;;;;;4.53;1.60;;;14.30;99.90;;;;;;5008452;28;20224;-65
2021/12/09 10:13:16;;;;;;;7.70;1.67;;;14.20;99.90;;;;;;5009919;28;20206;-64
2021/12/09 10:15:47;;;;;;;9.20;1.43;;;14.40;99.90;;;;;;4988486;28;20189;-65
2021/12/09 10:18:44;;;;;;;9.90;1.50;;;14.50;99.90;;;;;;4999301;28;20234;-64
2021/12/09 10:21:26;;;;;;;5.50;1.63;;;14.70;99.90;;;;;;5002529;28;20213;-64
2021/12/09 10:24:07;;;;;;;4.60;1.10;;;14.90;99.90;;;;;;5006386;28;20185;-65
2021/12/09 10:26:46;;;;;;;8.47;1.20;;;14.90;99.90;;;;;;5006005;28;20567;-65
2021/12/09 10:29:20;;;;;;;5.77;1.40;;;14.90;99.90;;;;;;4986554;28;20189;-64
2021/12/09 10:31:57;;;;;;;3.93;1.60;;;14.90;99.90;;;;;;5004351;28;20193;-63
2021/12/09 10:34:39;;;;;;;10.17;1.73;;;14.90;99.90;;;;;;5002541;28;20197;-63
2021/12/09 10:37:13;;;;;;;6.97;1.40;;;14.90;99.90;;;;;;5022143;28;20346;-64
2021/12/09 10:39:45;;;;;;;11.17;1.60;;;14.70;99.90;;;;;;5000728;28;20192;-65
2021/12/09 10:42:26;;;;;;;4.03;1.57;;;14.50;99.90;;;;;;5003838;28;20247;-65
2021/12/09 10:45:06;;;;;;;8.90;1.73;;;14.40;99.90;;;;;;5035111;28;20686;-64
2021/12/09 10:47:55;;;;;;;12.97;1.70;;;14.60;99.90;;;;;;5005468;28;20303;-65
2021/12/09 10:56:03;;;;;;;7.10;1.43;;;14.80;99.90;;;;;;5003414;28;20222;-65
2021/12/09 10:58:34;;;;;;;9.23;1.57;;;15.40;99.90;;;;;;5002229;28;20196;-64
2021/12/09 11:01:14;;;;;;;4.40;1.33;;;15.60;99.90;;;;;;5005377;28;20212;-64
2021/12/09 11:03:46;;;;;;;5.50;1.40;;;15.40;99.90;;;;;;5005878;28;20713;-65
2021/12/09 11:06:22;;;;;;;6.90;1.63;;;15.40;99.90;;;;;;5019181;28;20220;-64
2021/12/09 11:08:53;;;;;;;5.07;1.30;;;15.50;99.90;;;;;;5020686;28;20188;-65
2021/12/09 11:11:45;;;;;;;9.47;1.83;;;15.60;99.90;;;;;;5003040;28;20636;-65
2021/12/09 11:14:18;;;;;;;7.60;1.50;;;15.70;99.90;;;;;;5036227;28;20196;-64
2021/12/09 11:17:06;;;;;;;3.90;1.40;;;15.70;99.90;;;;;;5004246;28;20286;-65
2021/12/09 11:22:06;;;;;;;4.50;1.50;;;15.90;99.90;;;;;;4995742;28;20518;-65
2021/12/09 11:24:42;;;;;;;6.93;1.93;;;15.90;99.90;;;;;;5037037;28;20185;-64
2021/12/09 11:27:15;;;;;;;6.00;1.50;;;15.90;99.90;;;;;;5004626;28;20208;-64
2021/12/09 11:29:51;;;;;;;5.10;1.17;;;15.90;99.90;;;;;;5004861;28;20234;-64
2021/12/09 11:32:36;;;;;;;5.30;1.47;;;15.90;99.90;;;;;;5004886;28;20840;-64
2021/12/09 11:35:18;;;;;;;5.77;1.50;;;15.90;99.90;;;;;;5000619;28;20220;-64
2021/12/09 11:40:27;;;;;;;4.90;1.40;;;16.00;99.90;;;;;;5001450;28;20200;-65
2021/12/09 11:43:00;;;;;;;4.73;1.10;;;15.90;99.90;;;;;;5001688;28;20504;-64
2021/12/09 11:45:35;;;;;;;7.43;1.27;;;15.90;99.90;;;;;;5001142;28;20236;-65
2021/12/09 11:48:05;;;;;;;4.07;1.50;;;15.80;99.90;;;;;;5000649;28;20192;-64
2021/12/09 11:50:38;;;;;;;3.07;1.37;;;15.80;99.90;;;;;;4999587;28;20192;-65
2021/12/09 11:53:08;;;;;;;4.63;1.40;;;15.70;99.90;;;;;;5015529;28;20200;-66
2021/12/09 11:55:44;;;;;;;6.73;1.60;;;15.60;99.90;;;;;;5004774;28;20197;-65
2021/12/09 11:58:24;;;;;;;8.73;2.30;;;15.50;99.90;;;;;;4996061;28;20216;-65
2021/12/09 12:15:47;;;;;;;8.27;1.20;;;15.40;99.90;;;;;;4994998;28;20192;-65
2021/12/09 12:24:33;;;;;;;5.90;1.77;;;15.20;99.90;;;;;;4995316;28;20197;-66
2021/12/09 12:30:12;;;;;;;2.73;1.30;;;15.00;99.90;;;;;;5002872;28;20243;-66
2021/12/09 12:38:48;;;;;;;4.97;1.10;;;15.00;99.90;;;;;;5005135;28;20493;-66
2021/12/09 12:41:13;;;;;;;2.90;1.20;;;15.00;99.90;;;;;;4994035;28;20212;-65
2021/12/09 12:43:59;;;;;;;5.10;1.50;;;15.10;99.90;;;;;;5004864;28;20196;-65
2021/12/09 12:49:34;;;;;;;10.27;1.60;;;15.00;99.90;;;;;;5002316;28;20307;-64
2021/12/09 12:52:13;;;;;;;4.33;1.30;;;15.00;99.90;;;;;;5004805;28;20215;-65
2021/12/09 12:54:52;;;;;;;3.67;1.10;;;15.00;99.90;;;;;;5008470;28;20322;-65
2021/12/09 12:57:44;;;;;;;5.90;1.30;;;15.00;99.90;;;;;;5012394;28;20188;-65
2021/12/09 13:00:29;;;;;;;9.47;1.23;;;15.00;99.90;;;;;;4999327;28;20296;-65
2021/12/09 13:06:08;;;;;;;2.90;1.07;;;14.90;99.90;;;;;;5008530;28;20532;-64
2021/12/09 13:09:17;;;;;;;2.07;0.80;;;14.90;99.90;;;;;;5008663;28;20562;-65
2021/12/09 13:11:49;;;;;;;4.30;1.43;;;14.90;99.90;;;;;;5007263;28;20752;-65
2021/12/09 13:14:26;;;;;;;3.70;1.27;;;14.90;99.90;;;;;;5007153;28;20239;-66
2021/12/09 13:17:03;;;;;;;4.70;1.57;;;14.80;99.90;;;;;;5006975;28;20193;-66
2021/12/09 13:19:37;;;;;;;6.33;1.50;;;14.80;99.90;;;;;;5008995;28;20196;-65
2021/12/09 13:22:35;;;;;;;6.03;1.37;;;14.80;99.90;;;;;;5005231;28;20730;-65
2021/12/09 13:25:29;;;;;;;2.80;1.03;;;14.80;99.90;;;;;;5008752;28;20224;-64
2021/12/09 13:28:04;;;;;;;4.17;1.20;;;14.80;99.90;;;;;;5007151;28;20601;-64
2021/12/09 13:33:49;;;;;;;6.37;1.40;;;14.70;99.90;;;;;;5007815;28;20592;-64
2021/12/09 13:36:39;;;;;;;4.90;1.27;;;14.70;99.90;;;;;;5006659;28;20200;-64
2021/12/09 13:47:40;;;;;;;7.87;1.60;;;14.60;99.90;;;;;;4997481;28;20645;-64
2021/12/09 13:50:45;;;;;;;4.67;1.60;;;14.50;99.90;;;;;;5006511;28;20200;-65
2021/12/09 13:55:37;;;;;;;5.50;1.37;;;14.40;99.90;;;;;;5008877;28;20185;-66
2021/12/09 13:58:14;;;;;;;6.83;1.50;;;14.40;99.90;;;;;;5008126;28;20835;-66
2021/12/09 14:00:45;;;;;;;5.50;1.60;;;14.30;99.90;;;;;;5005395;28;20902;-64